sensor_id;sensor_type;location;lat;lon;timestamp;P1;P2;P0
73305;PMS5003;61530;51.158;0.880;2023-06-22T00:00:49;12;11;7
73305;PMS5003;61530;51.158;0.880;2023-06-22T00:01:52;11;11;7
73305;PMS5003;61530;51.158;0.880;2023-06-22T00:02:55;9;9;5
73305;PMS5003;61530;51.158;0.880;2023-06-22T00:03:58;10;10;7
73305;PMS5003;61530;51.158;0.880;2023-06-22T00:05:01;13;13;8
73305;PMS5003;61530;51.158;0.880;2023-06-22T00:06:04;12;11;7
73305;PMS5003;61530;51.158;0.880;2023-06-22T00:07:07;11;9;6
73305;PMS5003;61530;51.158;0.880;2023-06-22T00:08:10;11;11;6
73305;PMS5003;61530;51.158;0.880;2023-06-22T00:09:13;9;9;6
73305;PMS5003;61530;51.158;0.880;2023-06-22T00:10:16;10;10;6
73305;PMS5003;61530;51.158;0.880;2023-06-22T00:11:19;12;9;6
73305;PMS5003;61530;51.158;0.880;2023-06-22T00:12:22;13;12;8
73305;PMS5003;61530;51.158;0.880;2023-06-22T00:13:25;12;11;7
73305;PMS5003;61530;51.158;0.880;2023-06-22T00:14:28;10;10;7
73305;PMS5003;61530;51.158;0.880;2023-06-22T00:15:31;12;12;8
73305;PMS5003;61530;51.158;0.880;2023-06-22T00:16:34;11;11;6
73305;PMS5003;61530;51.158;0.880;2023-06-22T00:17:37;11;10;6
73305;PMS5003;61530;51.158;0.880;2023-06-22T00:18:40;15;12;9
73305;PMS5003;61530;51.158;0.880;2023-06-22T00:19:43;10;10;7
73305;PMS5003;61530;51.158;0.880;2023-06-22T00:20:46;11;11;6
73305;PMS5003;61530;51.158;0.880;2023-06-22T00:21:49;11;11;7
73305;PMS5003;61530;51.158;0.880;2023-06-22T00:22:52;9;9;6
73305;PMS5003;61530;51.158;0.880;2023-06-22T00:23:55;11;11;6
73305;PMS5003;61530;51.158;0.880;2023-06-22T00:24:58;12;12;7
73305;PMS5003;61530;51.158;0.880;2023-06-22T00:26:01;9;9;6
73305;PMS5003;61530;51.158;0.880;2023-06-22T00:27:04;11;11;7
73305;PMS5003;61530;51.158;0.880;2023-06-22T00:28:07;15;13;8
73305;PMS5003;61530;51.158;0.880;2023-06-22T00:29:10;10;10;6
73305;PMS5003;61530;51.158;0.880;2023-06-22T00:30:13;10;10;7
73305;PMS5003;61530;51.158;0.880;2023-06-22T00:31:16;10;10;5
73305;PMS5003;61530;51.158;0.880;2023-06-22T00:32:19;12;11;7
73305;PMS5003;61530;51.158;0.880;2023-06-22T00:33:22;11;10;6
73305;PMS5003;61530;51.158;0.880;2023-06-22T00:34:25;12;12;8
73305;PMS5003;61530;51.158;0.880;2023-06-22T00:35:28;10;10;7
73305;PMS5003;61530;51.158;0.880;2023-06-22T00:36:31;14;13;8
73305;PMS5003;61530;51.158;0.880;2023-06-22T00:37:34;13;13;6
73305;PMS5003;61530;51.158;0.880;2023-06-22T00:38:37;10;10;7
73305;PMS5003;61530;51.158;0.880;2023-06-22T00:39:40;15;12;7
73305;PMS5003;61530;51.158;0.880;2023-06-22T00:40:43;10;10;6
73305;PMS5003;61530;51.158;0.880;2023-06-22T00:41:46;18;15;10
73305;PMS5003;61530;51.158;0.880;2023-06-22T00:42:49;16;16;8
73305;PMS5003;61530;51.158;0.880;2023-06-22T00:43:52;17;14;8
73305;PMS5003;61530;51.158;0.880;2023-06-22T00:44:55;9;9;7
73305;PMS5003;61530;51.158;0.880;2023-06-22T00:45:58;9;9;7
73305;PMS5003;61530;51.158;0.880;2023-06-22T00:47:03;15;14;7
73305;PMS5003;61530;51.158;0.880;2023-06-22T00:48:06;10;10;6
73305;PMS5003;61530;51.158;0.880;2023-06-22T00:49:09;15;12;6
73305;PMS5003;61530;51.158;0.880;2023-06-22T00:50:12;12;12;6
73305;PMS5003;61530;51.158;0.880;2023-06-22T00:51:15;12;12;7
73305;PMS5003;61530;51.158;0.880;2023-06-22T00:52:18;10;10;7
73305;PMS5003;61530;51.158;0.880;2023-06-22T00:53:21;17;17;8
73305;PMS5003;61530;51.158;0.880;2023-06-22T00:54:24;9;9;7
73305;PMS5003;61530;51.158;0.880;2023-06-22T00:55:27;13;9;6
73305;PMS5003;61530;51.158;0.880;2023-06-22T00:56:30;10;10;6
73305;PMS5003;61530;51.158;0.880;2023-06-22T00:57:33;13;11;7
73305;PMS5003;61530;51.158;0.880;2023-06-22T00:58:36;11;11;7
73305;PMS5003;61530;51.158;0.880;2023-06-22T00:59:39;13;12;8
73305;PMS5003;61530;51.158;0.880;2023-06-22T01:00:42;9;9;6
73305;PMS5003;61530;51.158;0.880;2023-06-22T01:01:45;12;12;7
73305;PMS5003;61530;51.158;0.880;2023-06-22T01:02:48;16;16;8
73305;PMS5003;61530;51.158;0.880;2023-06-22T01:03:51;12;12;7
73305;PMS5003;61530;51.158;0.880;2023-06-22T01:04:54;12;12;7
73305;PMS5003;61530;51.158;0.880;2023-06-22T01:06:05;12;12;9
73305;PMS5003;61530;51.158;0.880;2023-06-22T01:07:02;13;13;7
73305;PMS5003;61530;51.158;0.880;2023-06-22T01:08:05;12;11;7
73305;PMS5003;61530;51.158;0.880;2023-06-22T01:09:06;13;12;7
73305;PMS5003;61530;51.158;0.880;2023-06-22T01:10:07;12;12;7
73305;PMS5003;61530;51.158;0.880;2023-06-22T01:11:10;11;11;7
73305;PMS5003;61530;51.158;0.880;2023-06-22T01:12:12;11;11;7
73305;PMS5003;61530;51.158;0.880;2023-06-22T01:13:18;12;12;4
73305;PMS5003;61530;51.158;0.880;2023-06-22T01:14:19;7;7;5
73305;PMS5003;61530;51.158;0.880;2023-06-22T01:15:21;11;11;7
73305;PMS5003;61530;51.158;0.880;2023-06-22T01:16:25;9;9;6
73305;PMS5003;61530;51.158;0.880;2023-06-22T01:17:27;13;12;9
73305;PMS5003;61530;51.158;0.880;2023-06-22T01:18:30;16;13;8
73305;PMS5003;61530;51.158;0.880;2023-06-22T01:19:35;11;11;7
73305;PMS5003;61530;51.158;0.880;2023-06-22T01:20:36;16;14;9
73305;PMS5003;61530;51.158;0.880;2023-06-22T01:21:39;11;9;6
73305;PMS5003;61530;51.158;0.880;2023-06-22T01:22:44;12;12;8
73305;PMS5003;61530;51.158;0.880;2023-06-22T01:23:56;12;11;7
73305;PMS5003;61530;51.158;0.880;2023-06-22T01:24:53;11;11;8
73305;PMS5003;61530;51.158;0.880;2023-06-22T01:25:57;14;11;7
73305;PMS5003;61530;51.158;0.880;2023-06-22T01:27:04;11;9;5
73305;PMS5003;61530;51.158;0.880;2023-06-22T01:28:03;12;12;8
73305;PMS5003;61530;51.158;0.880;2023-06-22T01:29:03;12;10;6
73305;PMS5003;61530;51.158;0.880;2023-06-22T01:30:06;12;10;6
73305;PMS5003;61530;51.158;0.880;2023-06-22T01:31:08;13;12;8
73305;PMS5003;61530;51.158;0.880;2023-06-22T01:32:11;9;8;5
73305;PMS5003;61530;51.158;0.880;2023-06-22T01:33:14;10;10;6
73305;PMS5003;61530;51.158;0.880;2023-06-22T01:34:17;11;9;7
73305;PMS5003;61530;51.158;0.880;2023-06-22T01:35:20;12;11;7
73305;PMS5003;61530;51.158;0.880;2023-06-22T01:36:23;10;10;7
73305;PMS5003;61530;51.158;0.880;2023-06-22T01:37:26;12;11;6
73305;PMS5003;61530;51.158;0.880;2023-06-22T01:38:29;14;13;7
73305;PMS5003;61530;51.158;0.880;2023-06-22T01:39:32;14;14;6
73305;PMS5003;61530;51.158;0.880;2023-06-22T01:40:37;14;12;9
73305;PMS5003;61530;51.158;0.880;2023-06-22T01:41:40;11;11;8
73305;PMS5003;61530;51.158;0.880;2023-06-22T01:42:43;16;14;6
73305;PMS5003;61530;51.158;0.880;2023-06-22T01:43:46;13;12;7
73305;PMS5003;61530;51.158;0.880;2023-06-22T01:44:49;15;14;8
73305;PMS5003;61530;51.158;0.880;2023-06-22T01:45:52;14;13;8
73305;PMS5003;61530;51.158;0.880;2023-06-22T01:46:56;14;10;6
73305;PMS5003;61530;51.158;0.880;2023-06-22T01:47:59;12;11;7
73305;PMS5003;61530;51.158;0.880;2023-06-22T01:49:02;13;11;6
73305;PMS5003;61530;51.158;0.880;2023-06-22T01:50:06;11;11;8
73305;PMS5003;61530;51.158;0.880;2023-06-22T01:51:08;12;12;8
73305;PMS5003;61530;51.158;0.880;2023-06-22T01:52:11;12;9;6
73305;PMS5003;61530;51.158;0.880;2023-06-22T01:53:15;13;12;6
73305;PMS5003;61530;51.158;0.880;2023-06-22T01:54:17;10;10;7
73305;PMS5003;61530;51.158;0.880;2023-06-22T01:55:20;13;12;8
73305;PMS5003;61530;51.158;0.880;2023-06-22T01:56:23;10;10;6
73305;PMS5003;61530;51.158;0.880;2023-06-22T01:57:26;12;11;6
73305;PMS5003;61530;51.158;0.880;2023-06-22T01:58:30;14;13;6
73305;PMS5003;61530;51.158;0.880;2023-06-22T01:59:34;13;12;7
73305;PMS5003;61530;51.158;0.880;2023-06-22T02:00:36;10;9;5
73305;PMS5003;61530;51.158;0.880;2023-06-22T02:01:40;12;12;8
73305;PMS5003;61530;51.158;0.880;2023-06-22T02:02:44;12;12;7
73305;PMS5003;61530;51.158;0.880;2023-06-22T02:03:46;10;10;7
73305;PMS5003;61530;51.158;0.880;2023-06-22T02:04:48;10;10;7
73305;PMS5003;61530;51.158;0.880;2023-06-22T02:05:52;10;10;7
73305;PMS5003;61530;51.158;0.880;2023-06-22T02:06:55;14;13;8
73305;PMS5003;61530;51.158;0.880;2023-06-22T02:08:07;13;13;8
73305;PMS5003;61530;51.158;0.880;2023-06-22T02:09:00;12;11;6
73305;PMS5003;61530;51.158;0.880;2023-06-22T02:10:03;11;10;8
73305;PMS5003;61530;51.158;0.880;2023-06-22T02:11:06;9;9;6
73305;PMS5003;61530;51.158;0.880;2023-06-22T02:12:08;13;13;8
73305;PMS5003;61530;51.158;0.880;2023-06-22T02:13:14;15;15;6
73305;PMS5003;61530;51.158;0.880;2023-06-22T02:14:17;14;12;9
73305;PMS5003;61530;51.158;0.880;2023-06-22T02:15:20;10;10;7
73305;PMS5003;61530;51.158;0.880;2023-06-22T02:16:23;12;12;7
73305;PMS5003;61530;51.158;0.880;2023-06-22T02:17:26;12;11;7
73305;PMS5003;61530;51.158;0.880;2023-06-22T02:18:29;14;14;9
73305;PMS5003;61530;51.158;0.880;2023-06-22T02:19:35;13;13;8
73305;PMS5003;61530;51.158;0.880;2023-06-22T02:20:36;15;13;8
73305;PMS5003;61530;51.158;0.880;2023-06-22T02:21:38;11;11;7
73305;PMS5003;61530;51.158;0.880;2023-06-22T02:22:41;11;11;8
73305;PMS5003;61530;51.158;0.880;2023-06-22T02:23:45;11;10;6
73305;PMS5003;61530;51.158;0.880;2023-06-22T02:24:49;17;14;9
73305;PMS5003;61530;51.158;0.880;2023-06-22T02:25:52;12;12;9
73305;PMS5003;61530;51.158;0.880;2023-06-22T02:26:55;13;12;8
73305;PMS5003;61530;51.158;0.880;2023-06-22T02:27:58;12;12;8
73305;PMS5003;61530;51.158;0.880;2023-06-22T02:29:00;12;12;8
73305;PMS5003;61530;51.158;0.880;2023-06-22T02:30:04;10;10;7
73305;PMS5003;61530;51.158;0.880;2023-06-22T02:31:06;11;11;7
73305;PMS5003;61530;51.158;0.880;2023-06-22T02:32:09;19;17;8
73305;PMS5003;61530;51.158;0.880;2023-06-22T02:33:12;14;14;8
73305;PMS5003;61530;51.158;0.880;2023-06-22T02:34:15;13;13;8
73305;PMS5003;61530;51.158;0.880;2023-06-22T02:35:18;10;10;7
73305;PMS5003;61530;51.158;0.880;2023-06-22T02:36:21;13;12;7
73305;PMS5003;61530;51.158;0.880;2023-06-22T02:37:24;12;11;7
73305;PMS5003;61530;51.158;0.880;2023-06-22T02:38:27;12;12;7
73305;PMS5003;61530;51.158;0.880;2023-06-22T02:39:30;12;12;8
73305;PMS5003;61530;51.158;0.880;2023-06-22T02:40:33;12;11;7
73305;PMS5003;61530;51.158;0.880;2023-06-22T02:41:36;12;11;7
73305;PMS5003;61530;51.158;0.880;2023-06-22T02:42:39;15;11;8
73305;PMS5003;61530;51.158;0.880;2023-06-22T02:43:44;14;14;9
73305;PMS5003;61530;51.158;0.880;2023-06-22T02:44:49;11;11;8
73305;PMS5003;61530;51.158;0.880;2023-06-22T02:45:52;16;15;7
73305;PMS5003;61530;51.158;0.880;2023-06-22T02:46:55;13;12;7
73305;PMS5003;61530;51.158;0.880;2023-06-22T02:47:58;14;14;9
73305;PMS5003;61530;51.158;0.880;2023-06-22T02:49:01;13;13;9
73305;PMS5003;61530;51.158;0.880;2023-06-22T02:50:04;15;15;7
73305;PMS5003;61530;51.158;0.880;2023-06-22T02:51:07;21;20;9
73305;PMS5003;61530;51.158;0.880;2023-06-22T02:52:10;16;14;8
73305;PMS5003;61530;51.158;0.880;2023-06-22T02:53:13;13;13;9
73305;PMS5003;61530;51.158;0.880;2023-06-22T02:54:16;14;13;8
73305;PMS5003;61530;51.158;0.880;2023-06-22T02:55:19;18;14;8
73305;PMS5003;61530;51.158;0.880;2023-06-22T02:56:22;13;13;9
73305;PMS5003;61530;51.158;0.880;2023-06-22T02:57:25;14;14;8
73305;PMS5003;61530;51.158;0.880;2023-06-22T02:58:28;15;13;8
73305;PMS5003;61530;51.158;0.880;2023-06-22T02:59:31;17;15;8
73305;PMS5003;61530;51.158;0.880;2023-06-22T03:00:34;13;12;7
73305;PMS5003;61530;51.158;0.880;2023-06-22T03:01:37;14;14;9
73305;PMS5003;61530;51.158;0.880;2023-06-22T03:02:40;18;14;8
73305;PMS5003;61530;51.158;0.880;2023-06-22T03:03:43;15;13;9
73305;PMS5003;61530;51.158;0.880;2023-06-22T03:04:46;13;13;9
73305;PMS5003;61530;51.158;0.880;2023-06-22T03:05:49;13;13;10
73305;PMS5003;61530;51.158;0.880;2023-06-22T03:06:52;13;13;8
73305;PMS5003;61530;51.158;0.880;2023-06-22T03:07:55;14;14;9
73305;PMS5003;61530;51.158;0.880;2023-06-22T03:08:59;12;11;7
73305;PMS5003;61530;51.158;0.880;2023-06-22T03:10:01;14;10;8
73305;PMS5003;61530;51.158;0.880;2023-06-22T03:11:04;14;12;8
73305;PMS5003;61530;51.158;0.880;2023-06-22T03:12:08;16;14;10
73305;PMS5003;61530;51.158;0.880;2023-06-22T03:13:10;13;12;8
73305;PMS5003;61530;51.158;0.880;2023-06-22T03:14:13;15;13;7
73305;PMS5003;61530;51.158;0.880;2023-06-22T03:15:16;12;12;8
73305;PMS5003;61530;51.158;0.880;2023-06-22T03:16:20;14;13;8
73305;PMS5003;61530;51.158;0.880;2023-06-22T03:17:25;15;13;8
73305;PMS5003;61530;51.158;0.880;2023-06-22T03:18:28;17;15;8
73305;PMS5003;61530;51.158;0.880;2023-06-22T03:19:31;14;12;9
73305;PMS5003;61530;51.158;0.880;2023-06-22T03:20:34;14;13;8
73305;PMS5003;61530;51.158;0.880;2023-06-22T03:21:37;12;11;8
73305;PMS5003;61530;51.158;0.880;2023-06-22T03:25:23;15;13;8
73305;PMS5003;61530;51.158;0.880;2023-06-22T03:26:25;14;12;8
73305;PMS5003;61530;51.158;0.880;2023-06-22T03:27:28;13;13;9
73305;PMS5003;61530;51.158;0.880;2023-06-22T03:28:31;12;11;7
73305;PMS5003;61530;51.158;0.880;2023-06-22T03:29:34;19;18;7
73305;PMS5003;61530;51.158;0.880;2023-06-22T03:30:37;12;12;7
73305;PMS5003;61530;51.158;0.880;2023-06-22T03:31:40;15;14;8
73305;PMS5003;61530;51.158;0.880;2023-06-22T03:32:43;11;11;7
73305;PMS5003;61530;51.158;0.880;2023-06-22T03:33:46;12;12;8
73305;PMS5003;61530;51.158;0.880;2023-06-22T03:34:49;12;10;7
73305;PMS5003;61530;51.158;0.880;2023-06-22T03:35:52;15;13;8
73305;PMS5003;61530;51.158;0.880;2023-06-22T03:36:55;13;13;8
73305;PMS5003;61530;51.158;0.880;2023-06-22T03:37:58;12;10;7
73305;PMS5003;61530;51.158;0.880;2023-06-22T03:39:01;14;13;7
73305;PMS5003;61530;51.158;0.880;2023-06-22T03:40:05;16;13;8
73305;PMS5003;61530;51.158;0.880;2023-06-22T03:41:07;13;13;7
73305;PMS5003;61530;51.158;0.880;2023-06-22T03:42:10;12;12;9
73305;PMS5003;61530;51.158;0.880;2023-06-22T03:43:13;11;11;8
73305;PMS5003;61530;51.158;0.880;2023-06-22T03:44:16;16;13;7
73305;PMS5003;61530;51.158;0.880;2023-06-22T03:45:19;13;12;6
73305;PMS5003;61530;51.158;0.880;2023-06-22T03:46:22;9;9;6
73305;PMS5003;61530;51.158;0.880;2023-06-22T03:47:25;13;10;6
73305;PMS5003;61530;51.158;0.880;2023-06-22T03:48:28;12;12;8
73305;PMS5003;61530;51.158;0.880;2023-06-22T03:49:31;10;10;6
73305;PMS5003;61530;51.158;0.880;2023-06-22T03:50:34;12;12;9
73305;PMS5003;61530;51.158;0.880;2023-06-22T03:51:37;11;11;7
73305;PMS5003;61530;51.158;0.880;2023-06-22T03:52:40;10;10;8
73305;PMS5003;61530;51.158;0.880;2023-06-22T03:53:43;12;11;7
73305;PMS5003;61530;51.158;0.880;2023-06-22T03:54:46;13;11;8
73305;PMS5003;61530;51.158;0.880;2023-06-22T03:55:50;13;12;8
73305;PMS5003;61530;51.158;0.880;2023-06-22T03:56:52;14;11;8
73305;PMS5003;61530;51.158;0.880;2023-06-22T03:57:55;12;11;7
73305;PMS5003;61530;51.158;0.880;2023-06-22T03:58:58;13;13;9
73305;PMS5003;61530;51.158;0.880;2023-06-22T04:00:01;18;18;8
73305;PMS5003;61530;51.158;0.880;2023-06-22T04:01:04;11;10;6
73305;PMS5003;61530;51.158;0.880;2023-06-22T04:02:07;11;11;7
73305;PMS5003;61530;51.158;0.880;2023-06-22T04:03:10;15;15;7
73305;PMS5003;61530;51.158;0.880;2023-06-22T04:04:13;15;15;8
73305;PMS5003;61530;51.158;0.880;2023-06-22T04:05:16;16;13;7
73305;PMS5003;61530;51.158;0.880;2023-06-22T04:06:19;12;10;7
73305;PMS5003;61530;51.158;0.880;2023-06-22T04:07:22;14;11;7
73305;PMS5003;61530;51.158;0.880;2023-06-22T04:08:25;18;16;8
73305;PMS5003;61530;51.158;0.880;2023-06-22T04:09:28;15;14;7
73305;PMS5003;61530;51.158;0.880;2023-06-22T04:10:31;10;10;7
73305;PMS5003;61530;51.158;0.880;2023-06-22T04:11:34;12;12;7
73305;PMS5003;61530;51.158;0.880;2023-06-22T04:12:37;15;13;7
73305;PMS5003;61530;51.158;0.880;2023-06-22T04:13:40;14;14;8
73305;PMS5003;61530;51.158;0.880;2023-06-22T04:14:43;14;14;7
73305;PMS5003;61530;51.158;0.880;2023-06-22T04:15:46;13;11;8
73305;PMS5003;61530;51.158;0.880;2023-06-22T04:16:49;11;10;6
73305;PMS5003;61530;51.158;0.880;2023-06-22T04:17:54;10;9;6
73305;PMS5003;61530;51.158;0.880;2023-06-22T04:18:55;13;13;8
73305;PMS5003;61530;51.158;0.880;2023-06-22T04:19:58;13;13;8
73305;PMS5003;61530;51.158;0.880;2023-06-22T04:21:01;12;10;7
73305;PMS5003;61530;51.158;0.880;2023-06-22T04:22:04;16;14;8
73305;PMS5003;61530;51.158;0.880;2023-06-22T04:23:07;21;16;7
73305;PMS5003;61530;51.158;0.880;2023-06-22T04:24:10;14;14;9
73305;PMS5003;61530;51.158;0.880;2023-06-22T04:25:13;18;15;9
73305;PMS5003;61530;51.158;0.880;2023-06-22T04:26:16;12;12;9
73305;PMS5003;61530;51.158;0.880;2023-06-22T04:27:19;14;13;8
73305;PMS5003;61530;51.158;0.880;2023-06-22T04:28:22;14;14;7
73305;PMS5003;61530;51.158;0.880;2023-06-22T04:29:25;12;11;6
73305;PMS5003;61530;51.158;0.880;2023-06-22T04:30:28;14;13;8
73305;PMS5003;61530;51.158;0.880;2023-06-22T04:31:31;15;13;8
73305;PMS5003;61530;51.158;0.880;2023-06-22T04:32:34;16;14;9
73305;PMS5003;61530;51.158;0.880;2023-06-22T04:33:37;15;14;8
73305;PMS5003;61530;51.158;0.880;2023-06-22T04:34:40;17;16;8
73305;PMS5003;61530;51.158;0.880;2023-06-22T04:35:44;16;16;10
73305;PMS5003;61530;51.158;0.880;2023-06-22T04:36:46;14;14;8
73305;PMS5003;61530;51.158;0.880;2023-06-22T04:37:49;13;13;8
73305;PMS5003;61530;51.158;0.880;2023-06-22T04:38:52;13;13;9
73305;PMS5003;61530;51.158;0.880;2023-06-22T04:39:55;13;13;8
73305;PMS5003;61530;51.158;0.880;2023-06-22T04:40:58;16;16;9
73305;PMS5003;61530;51.158;0.880;2023-06-22T04:42:01;18;18;10
73305;PMS5003;61530;51.158;0.880;2023-06-22T04:43:04;16;15;9
73305;PMS5003;61530;51.158;0.880;2023-06-22T04:44:08;12;12;8
73305;PMS5003;61530;51.158;0.880;2023-06-22T04:45:10;14;14;7
73305;PMS5003;61530;51.158;0.880;2023-06-22T04:46:13;14;13;8
73305;PMS5003;61530;51.158;0.880;2023-06-22T04:47:16;13;12;9
73305;PMS5003;61530;51.158;0.880;2023-06-22T04:48:19;14;14;10
73305;PMS5003;61530;51.158;0.880;2023-06-22T04:49:22;15;13;8
73305;PMS5003;61530;51.158;0.880;2023-06-22T04:50:25;12;12;8
73305;PMS5003;61530;51.158;0.880;2023-06-22T04:51:28;16;15;9
73305;PMS5003;61530;51.158;0.880;2023-06-22T04:52:31;12;12;8
73305;PMS5003;61530;51.158;0.880;2023-06-22T04:53:34;16;14;9
73305;PMS5003;61530;51.158;0.880;2023-06-22T04:54:38;15;14;11
73305;PMS5003;61530;51.158;0.880;2023-06-22T04:55:40;17;17;10
73305;PMS5003;61530;51.158;0.880;2023-06-22T04:56:43;18;16;10
73305;PMS5003;61530;51.158;0.880;2023-06-22T04:57:46;16;16;10
73305;PMS5003;61530;51.158;0.880;2023-06-22T04:58:49;16;15;9
73305;PMS5003;61530;51.158;0.880;2023-06-22T04:59:52;17;17;11
73305;PMS5003;61530;51.158;0.880;2023-06-22T05:00:55;20;20;12
73305;PMS5003;61530;51.158;0.880;2023-06-22T05:01:59;27;21;11
73305;PMS5003;61530;51.158;0.880;2023-06-22T05:03:02;19;17;12
73305;PMS5003;61530;51.158;0.880;2023-06-22T05:04:04;23;20;10
73305;PMS5003;61530;51.158;0.880;2023-06-22T05:05:07;21;19;10
73305;PMS5003;61530;51.158;0.880;2023-06-22T05:06:10;19;17;11
73305;PMS5003;61530;51.158;0.880;2023-06-22T05:07:13;19;19;11
73305;PMS5003;61530;51.158;0.880;2023-06-22T05:08:16;23;20;10
73305;PMS5003;61530;51.158;0.880;2023-06-22T05:09:19;21;21;11
73305;PMS5003;61530;51.158;0.880;2023-06-22T05:10:22;17;17;11
73305;PMS5003;61530;51.158;0.880;2023-06-22T05:11:25;23;19;12
73305;PMS5003;61530;51.158;0.880;2023-06-22T05:12:29;19;18;10
73305;PMS5003;61530;51.158;0.880;2023-06-22T05:13:31;20;18;12
73305;PMS5003;61530;51.158;0.880;2023-06-22T05:14:34;21;21;10
73305;PMS5003;61530;51.158;0.880;2023-06-22T05:15:37;18;18;12
73305;PMS5003;61530;51.158;0.880;2023-06-22T05:16:41;19;19;12
73305;PMS5003;61530;51.158;0.880;2023-06-22T05:17:43;17;16;10
73305;PMS5003;61530;51.158;0.880;2023-06-22T05:18:46;20;19;10
73305;PMS5003;61530;51.158;0.880;2023-06-22T05:19:49;19;17;11
73305;PMS5003;61530;51.158;0.880;2023-06-22T05:20:52;20;18;13
73305;PMS5003;61530;51.158;0.880;2023-06-22T05:21:55;18;17;11
73305;PMS5003;61530;51.158;0.880;2023-06-22T05:22:58;23;23;12
73305;PMS5003;61530;51.158;0.880;2023-06-22T05:24:02;26;22;10
73305;PMS5003;61530;51.158;0.880;2023-06-22T05:25:05;17;17;12
73305;PMS5003;61530;51.158;0.880;2023-06-22T05:26:07;19;18;11
73305;PMS5003;61530;51.158;0.880;2023-06-22T05:27:10;20;18;11
73305;PMS5003;61530;51.158;0.880;2023-06-22T05:28:13;19;16;11
73305;PMS5003;61530;51.158;0.880;2023-06-22T05:29:16;18;18;9
73305;PMS5003;61530;51.158;0.880;2023-06-22T05:30:19;20;19;12
73305;PMS5003;61530;51.158;0.880;2023-06-22T05:31:22;15;15;10
73305;PMS5003;61530;51.158;0.880;2023-06-22T05:32:25;16;15;10
73305;PMS5003;61530;51.158;0.880;2023-06-22T05:33:28;19;19;12
73305;PMS5003;61530;51.158;0.880;2023-06-22T05:34:31;15;15;9
73305;PMS5003;61530;51.158;0.880;2023-06-22T05:35:34;19;18;9
73305;PMS5003;61530;51.158;0.880;2023-06-22T05:36:37;14;14;8
73305;PMS5003;61530;51.158;0.880;2023-06-22T05:37:40;17;14;9
73305;PMS5003;61530;51.158;0.880;2023-06-22T05:38:43;16;15;9
73305;PMS5003;61530;51.158;0.880;2023-06-22T05:39:46;19;18;10
73305;PMS5003;61530;51.158;0.880;2023-06-22T05:40:49;15;14;9
73305;PMS5003;61530;51.158;0.880;2023-06-22T05:41:52;22;19;9
73305;PMS5003;61530;51.158;0.880;2023-06-22T05:42:55;19;17;9
73305;PMS5003;61530;51.158;0.880;2023-06-22T05:43:58;15;15;10
73305;PMS5003;61530;51.158;0.880;2023-06-22T05:45:01;17;16;7
73305;PMS5003;61530;51.158;0.880;2023-06-22T05:46:04;16;16;9
73305;PMS5003;61530;51.158;0.880;2023-06-22T05:47:07;13;13;8
73305;PMS5003;61530;51.158;0.880;2023-06-22T05:48:10;15;14;9
73305;PMS5003;61530;51.158;0.880;2023-06-22T05:49:13;14;14;7
73305;PMS5003;61530;51.158;0.880;2023-06-22T05:50:16;13;13;9
73305;PMS5003;61530;51.158;0.880;2023-06-22T05:51:19;17;15;9
73305;PMS5003;61530;51.158;0.880;2023-06-22T05:52:22;11;11;7
73305;PMS5003;61530;51.158;0.880;2023-06-22T05:53:25;14;13;9
73305;PMS5003;61530;51.158;0.880;2023-06-22T05:54:28;16;16;8
73305;PMS5003;61530;51.158;0.880;2023-06-22T05:55:31;15;15;9
73305;PMS5003;61530;51.158;0.880;2023-06-22T05:56:34;17;16;11
73305;PMS5003;61530;51.158;0.880;2023-06-22T05:57:37;21;19;10
73305;PMS5003;61530;51.158;0.880;2023-06-22T05:58:40;13;13;9
73305;PMS5003;61530;51.158;0.880;2023-06-22T05:59:43;18;16;10
73305;PMS5003;61530;51.158;0.880;2023-06-22T06:00:46;18;16;11
73305;PMS5003;61530;51.158;0.880;2023-06-22T06:01:49;20;19;10
73305;PMS5003;61530;51.158;0.880;2023-06-22T06:02:52;17;16;9
73305;PMS5003;61530;51.158;0.880;2023-06-22T06:03:55;15;15;11
73305;PMS5003;61530;51.158;0.880;2023-06-22T06:04:58;16;15;9
73305;PMS5003;61530;51.158;0.880;2023-06-22T06:06:01;15;14;9
73305;PMS5003;61530;51.158;0.880;2023-06-22T06:07:04;15;15;8
73305;PMS5003;61530;51.158;0.880;2023-06-22T06:08:07;18;13;8
73305;PMS5003;61530;51.158;0.880;2023-06-22T06:09:10;12;12;8
73305;PMS5003;61530;51.158;0.880;2023-06-22T06:10:13;11;11;7
73305;PMS5003;61530;51.158;0.880;2023-06-22T06:11:16;14;13;8
73305;PMS5003;61530;51.158;0.880;2023-06-22T06:12:19;15;14;10
73305;PMS5003;61530;51.158;0.880;2023-06-22T06:13:22;12;12;8
73305;PMS5003;61530;51.158;0.880;2023-06-22T06:14:25;13;13;7
73305;PMS5003;61530;51.158;0.880;2023-06-22T06:15:28;12;12;8
73305;PMS5003;61530;51.158;0.880;2023-06-22T06:16:31;14;13;8
73305;PMS5003;61530;51.158;0.880;2023-06-22T06:17:34;17;15;8
73305;PMS5003;61530;51.158;0.880;2023-06-22T06:18:37;14;13;8
73305;PMS5003;61530;51.158;0.880;2023-06-22T06:19:40;12;11;8
73305;PMS5003;61530;51.158;0.880;2023-06-22T06:20:43;15;13;8
73305;PMS5003;61530;51.158;0.880;2023-06-22T06:21:46;13;12;8
73305;PMS5003;61530;51.158;0.880;2023-06-22T06:22:49;11;11;6
73305;PMS5003;61530;51.158;0.880;2023-06-22T06:23:52;11;11;7
73305;PMS5003;61530;51.158;0.880;2023-06-22T06:24:55;12;11;7
73305;PMS5003;61530;51.158;0.880;2023-06-22T06:25:58;12;10;6
73305;PMS5003;61530;51.158;0.880;2023-06-22T06:27:01;17;16;8
73305;PMS5003;61530;51.158;0.880;2023-06-22T06:28:04;12;12;8
73305;PMS5003;61530;51.158;0.880;2023-06-22T06:29:07;13;13;9
73305;PMS5003;61530;51.158;0.880;2023-06-22T06:30:11;16;16;6
73305;PMS5003;61530;51.158;0.880;2023-06-22T06:31:13;14;11;6
73305;PMS5003;61530;51.158;0.880;2023-06-22T06:32:16;14;12;8
73305;PMS5003;61530;51.158;0.880;2023-06-22T06:33:19;14;14;9
73305;PMS5003;61530;51.158;0.880;2023-06-22T06:34:22;11;11;7
73305;PMS5003;61530;51.158;0.880;2023-06-22T06:35:25;12;12;8
73305;PMS5003;61530;51.158;0.880;2023-06-22T06:36:28;14;13;8
73305;PMS5003;61530;51.158;0.880;2023-06-22T06:37:31;13;12;7
73305;PMS5003;61530;51.158;0.880;2023-06-22T06:38:34;14;12;6
73305;PMS5003;61530;51.158;0.880;2023-06-22T06:39:37;15;12;8
73305;PMS5003;61530;51.158;0.880;2023-06-22T06:40:40;12;12;9
73305;PMS5003;61530;51.158;0.880;2023-06-22T06:41:43;15;13;8
73305;PMS5003;61530;51.158;0.880;2023-06-22T06:42:47;15;12;8
73305;PMS5003;61530;51.158;0.880;2023-06-22T06:43:49;17;15;8
73305;PMS5003;61530;51.158;0.880;2023-06-22T06:44:52;15;15;7
73305;PMS5003;61530;51.158;0.880;2023-06-22T06:45:55;12;12;8
73305;PMS5003;61530;51.158;0.880;2023-06-22T06:46:58;13;12;8
73305;PMS5003;61530;51.158;0.880;2023-06-22T06:48:01;14;13;8
73305;PMS5003;61530;51.158;0.880;2023-06-22T06:49:04;16;14;8
73305;PMS5003;61530;51.158;0.880;2023-06-22T06:50:08;15;15;7
73305;PMS5003;61530;51.158;0.880;2023-06-22T06:51:10;15;14;9
73305;PMS5003;61530;51.158;0.880;2023-06-22T06:52:13;11;11;7
73305;PMS5003;61530;51.158;0.880;2023-06-22T06:53:16;12;12;8
73305;PMS5003;61530;51.158;0.880;2023-06-22T06:54:19;19;18;6